Time;durP1;ratioP1;P1;durP2;ratioP2;P2;SDS_P1;SDS_P2;PMS_P1;PMS_P2;Temp;Humidity;BMP_temperature;BMP_pressure;BME280_temperature;BME280_humidity;BME280_pressure;Samples;Min_cycle;Max_cycle;Signal;HPM_P1;HPM_P2
2023/09/02 00:01:14;;;;;;;1.15;1.10;;;14.90;99.90;;;;;;4968798;28;20046;-72
2023/09/02 00:03:40;;;;;;;1.52;1.40;;;14.90;99.90;;;;;;4970690;28;20033;-73
2023/09/02 00:06:05;;;;;;;2.10;1.55;;;14.90;99.90;;;;;;4966260;28;20215;-73
2023/09/02 00:08:31;;;;;;;1.20;1.10;;;14.90;99.90;;;;;;4968549;28;20586;-73
2023/09/02 00:10:57;;;;;;;4.05;1.27;;;15.00;99.90;;;;;;4967196;28;20129;-70
2023/09/02 00:13:22;;;;;;;2.97;1.20;;;14.90;99.90;;;;;;4968476;28;20029;-70
2023/09/02 00:15:48;;;;;;;1.35;1.25;;;14.90;99.90;;;;;;4963839;28;20034;-71
2023/09/02 00:18:14;;;;;;;3.22;1.60;;;14.90;99.90;;;;;;4967488;28;20038;-70
2023/09/02 00:20:39;;;;;;;3.38;1.50;;;14.90;99.90;;;;;;4971621;28;20553;-70
2023/09/02 00:23:05;;;;;;;1.70;1.52;;;14.90;99.90;;;;;;4965638;28;20424;-71
2023/09/02 00:25:31;;;;;;;1.30;1.20;;;14.90;99.90;;;;;;4970167;28;20113;-70
2023/09/02 00:27:56;;;;;;;3.78;1.17;;;15.10;99.90;;;;;;4964012;28;20130;-70
2023/09/02 00:30:22;;;;;;;3.25;1.08;;;15.10;99.90;;;;;;4964038;28;20132;-70
2023/09/02 00:32:47;;;;;;;2.80;1.20;;;15.10;99.90;;;;;;4969100;28;20034;-70
2023/09/02 00:35:13;;;;;;;2.80;1.48;;;15.10;99.90;;;;;;4968500;28;20081;-71
2023/09/02 00:37:39;;;;;;;1.33;1.15;;;15.10;99.90;;;;;;4969086;28;20042;-71
2023/09/02 00:40:09;;;;;;;2.20;1.30;;;15.10;99.90;;;;;;4969027;28;20474;-71
2023/09/02 00:42:36;;;;;;;2.50;1.20;;;15.10;99.90;;;;;;4966891;28;20565;-70
2023/09/02 00:45:02;;;;;;;2.15;1.08;;;15.10;99.90;;;;;;4966927;28;20165;-70
2023/09/02 00:47:28;;;;;;;3.45;1.10;;;15.10;99.90;;;;;;4967027;28;20054;-70
2023/09/02 00:49:54;;;;;;;1.38;1.13;;;15.10;99.90;;;;;;4968597;28;20196;-69
2023/09/02 00:52:20;;;;;;;3.55;1.35;;;15.10;99.90;;;;;;4961938;28;20054;-70
2023/09/02 00:54:45;;;;;;;1.92;1.17;;;15.20;99.90;;;;;;4966877;28;20695;-70
2023/09/02 00:57:11;;;;;;;1.48;1.38;;;15.20;99.90;;;;;;4962542;28;20543;-70
2023/09/02 00:59:37;;;;;;;2.05;1.63;;;15.10;99.90;;;;;;4969777;28;20780;-70
2023/09/02 01:02:04;;;;;;;1.40;1.30;;;15.10;99.90;;;;;;4963110;28;20023;-70
2023/09/02 01:04:32;;;;;;;1.67;1.50;;;15.20;99.90;;;;;;4969033;28;20512;-75
2023/09/02 01:07:00;;;;;;;1.30;1.20;;;15.20;99.90;;;;;;4970331;28;20054;-75
2023/09/02 01:09:25;;;;;;;1.88;1.40;;;15.20;99.90;;;;;;4973088;28;20033;-75
2023/09/02 01:11:51;;;;;;;3.60;1.40;;;15.30;99.90;;;;;;4971364;28;20034;-75
2023/09/02 01:14:16;;;;;;;2.47;1.50;;;15.30;99.90;;;;;;4966699;28;20042;-74
2023/09/02 01:16:42;;;;;;;4.53;1.38;;;15.30;99.90;;;;;;4968692;28;20564;-75
2023/09/02 01:19:13;;;;;;;3.17;1.40;;;15.30;99.90;;;;;;4971614;28;20046;-76
2023/09/02 01:21:53;;;;;;;2.28;1.30;;;15.30;99.90;;;;;;4974086;28;20084;-75
2023/09/02 01:24:37;;;;;;;2.58;1.30;;;15.40;99.90;;;;;;4971042;28;20633;-75
2023/09/02 01:27:18;;;;;;;1.90;1.48;;;15.40;99.90;;;;;;4970023;28;20409;-75
2023/09/02 01:30:08;;;;;;;3.08;1.65;;;15.30;99.90;;;;;;4975087;28;20109;-75
2023/09/02 01:32:37;;;;;;;1.75;1.60;;;15.20;99.90;;;;;;4970773;28;20038;-75
2023/09/02 01:35:05;;;;;;;2.80;1.63;;;15.10;99.90;;;;;;4969871;28;20034;-75
2023/09/02 01:37:43;;;;;;;3.97;1.70;;;15.10;99.90;;;;;;4967850;28;20061;-75
2023/09/02 01:40:15;;;;;;;2.65;1.38;;;15.10;99.90;;;;;;4969769;28;20050;-74
2023/09/02 01:42:42;;;;;;;2.58;1.42;;;15.10;99.90;;;;;;4967668;28;20118;-74
2023/09/02 01:45:10;;;;;;;2.30;2.00;;;15.10;99.90;;;;;;4968514;28;20042;-75
2023/09/02 01:47:37;;;;;;;3.10;1.33;;;15.10;99.90;;;;;;4965721;28;20126;-75
2023/09/02 01:50:06;;;;;;;2.05;1.42;;;15.20;99.90;;;;;;4971749;28;20447;-75
2023/09/02 01:52:32;;;;;;;3.28;1.33;;;15.30;99.90;;;;;;4972262;28;20037;-75
2023/09/02 01:54:58;;;;;;;2.40;1.42;;;15.30;99.90;;;;;;4968069;28;20046;-75
2023/09/02 01:57:24;;;;;;;2.13;1.58;;;15.40;99.90;;;;;;4968729;28;20092;-74
2023/09/02 01:59:50;;;;;;;1.75;1.65;;;15.40;99.90;;;;;;4967103;28;20539;-75
2023/09/02 02:02:16;;;;;;;2.25;1.52;;;15.40;99.90;;;;;;4972651;28;20090;-75
2023/09/02 02:04:45;;;;;;;2.45;1.65;;;15.40;99.90;;;;;;4973583;28;20676;-75
2023/09/02 02:07:14;;;;;;;1.92;1.23;;;15.30;99.90;;;;;;4974561;28;20061;-76
2023/09/02 02:09:51;;;;;;;1.77;1.30;;;15.30;99.90;;;;;;4972584;28;20073;-75
2023/09/02 02:12:18;;;;;;;3.40;1.50;;;15.30;99.90;;;;;;4969881;28;20041;-74
2023/09/02 02:14:47;;;;;;;2.13;1.55;;;15.40;99.90;;;;;;4971960;28;20030;-75
2023/09/02 02:17:13;;;;;;;3.05;1.63;;;15.40;99.90;;;;;;4969942;28;20852;-75
2023/09/02 02:19:39;;;;;;;3.35;1.40;;;15.50;99.90;;;;;;4968819;28;20050;-70
2023/09/02 02:22:05;;;;;;;4.93;1.52;;;15.50;99.90;;;;;;4967377;28;20097;-70
2023/09/02 02:24:31;;;;;;;2.65;1.33;;;15.50;99.90;;;;;;4971543;28;20519;-70
2023/09/02 02:26:57;;;;;;;2.55;1.40;;;15.40;99.90;;;;;;4966337;28;20117;-70
2023/09/02 02:29:22;;;;;;;2.95;1.60;;;15.40;99.90;;;;;;4970446;28;20027;-71
2023/09/02 02:31:49;;;;;;;1.45;1.25;;;15.40;99.90;;;;;;4968258;28;20438;-70
2023/09/02 02:34:14;;;;;;;1.70;1.30;;;15.40;99.90;;;;;;4970813;28;20034;-71
2023/09/02 02:36:40;;;;;;;3.60;1.60;;;15.40;99.90;;;;;;4974241;28;20054;-71
2023/09/02 02:39:06;;;;;;;2.80;1.45;;;15.40;99.90;;;;;;4966259;28;20034;-75
2023/09/02 02:41:32;;;;;;;4.10;1.10;;;15.40;99.90;;;;;;4968170;28;20050;-75
2023/09/02 02:44:02;;;;;;;1.40;1.30;;;15.30;99.90;;;;;;4973046;28;20027;-75
2023/09/02 02:46:27;;;;;;;2.15;1.50;;;15.20;99.90;;;;;;4969940;28;20026;-75
2023/09/02 02:48:53;;;;;;;4.18;1.42;;;15.10;99.90;;;;;;4973058;28;20027;-75
2023/09/02 02:51:19;;;;;;;3.30;1.27;;;15.00;99.90;;;;;;4969616;28;20429;-74
2023/09/02 02:53:45;;;;;;;2.88;1.10;;;15.00;99.90;;;;;;4981886;28;20034;-75
2023/09/02 02:56:11;;;;;;;1.33;1.20;;;15.00;99.90;;;;;;4969753;28;20036;-75
2023/09/02 02:58:37;;;;;;;2.88;1.15;;;15.10;99.90;;;;;;4974876;28;20476;-75
2023/09/02 03:01:08;;;;;;;1.55;1.13;;;15.00;99.90;;;;;;4971136;28;20048;-75
2023/09/02 03:03:35;;;;;;;1.80;1.10;;;15.10;99.90;;;;;;4968998;28;20030;-76
2023/09/02 03:06:03;;;;;;;2.00;1.20;;;15.00;99.90;;;;;;4971509;28;20053;-75
2023/09/02 03:08:29;;;;;;;3.40;1.50;;;14.90;99.90;;;;;;4972366;28;20484;-76
2023/09/02 03:11:02;;;;;;;1.45;1.30;;;14.90;99.90;;;;;;4971845;28;20042;-76
2023/09/02 03:13:29;;;;;;;1.65;1.55;;;15.00;99.90;;;;;;4973491;28;20068;-75
2023/09/02 03:15:54;;;;;;;2.95;2.33;;;14.90;99.90;;;;;;4971499;28;20039;-75
2023/09/02 03:18:21;;;;;;;2.35;1.40;;;14.90;99.90;;;;;;4968390;28;20953;-75
2023/09/02 03:20:47;;;;;;;4.68;1.42;;;14.90;99.90;;;;;;4974992;28;20046;-74
2023/09/02 03:23:14;;;;;;;3.20;1.48;;;14.90;99.90;;;;;;4969853;28;20395;-75
2023/09/02 03:25:39;;;;;;;1.40;1.30;;;14.90;99.90;;;;;;4969025;28;20762;-75
2023/09/02 03:28:05;;;;;;;1.30;1.20;;;14.90;99.90;;;;;;4972359;28;20057;-75
2023/09/02 03:30:31;;;;;;;2.28;1.85;;;14.90;99.90;;;;;;4971554;28;20143;-76
2023/09/02 03:32:57;;;;;;;1.48;1.38;;;14.90;99.90;;;;;;4972077;28;20027;-76
2023/09/02 03:35:22;;;;;;;2.83;1.33;;;14.90;99.90;;;;;;4970760;28;20038;-75
2023/09/02 03:37:48;;;;;;;2.05;1.58;;;14.90;99.90;;;;;;4970979;28;20606;-76
2023/09/02 03:40:13;;;;;;;1.85;1.48;;;14.90;99.90;;;;;;4968921;28;20483;-75
2023/09/02 03:42:39;;;;;;;1.65;1.55;;;14.70;99.90;;;;;;4968092;28;20134;-76
2023/09/02 03:45:05;;;;;;;5.18;1.60;;;14.70;99.90;;;;;;4967301;28;20066;-75
2023/09/02 03:47:32;;;;;;;1.73;1.50;;;14.60;99.90;;;;;;4969567;28;20035;-74
2023/09/02 03:49:58;;;;;;;1.70;1.60;;;14.60;99.90;;;;;;4972512;28;20404;-71
2023/09/02 03:52:24;;;;;;;2.28;1.45;;;14.50;99.90;;;;;;4970429;28;20041;-70
2023/09/02 03:54:50;;;;;;;4.80;1.60;;;14.50;99.90;;;;;;4965717;28;20018;-71
2023/09/02 03:57:16;;;;;;;2.67;1.20;;;14.60;99.90;;;;;;4970539;28;20615;-70
2023/09/02 03:59:42;;;;;;;4.75;1.50;;;14.60;99.90;;;;;;4968654;28;20042;-71
2023/09/02 04:02:07;;;;;;;2.63;1.38;;;14.70;99.90;;;;;;4968598;28;20088;-70
2023/09/02 04:04:33;;;;;;;2.88;1.40;;;14.60;99.90;;;;;;4972591;28;20037;-71
2023/09/02 04:06:59;;;;;;;2.90;1.50;;;14.60;99.90;;;;;;4968548;28;20027;-70
2023/09/02 04:09:25;;;;;;;3.35;1.30;;;14.60;99.90;;;;;;4968010;28;20038;-76
2023/09/02 04:11:50;;;;;;;1.33;1.23;;;14.60;99.90;;;;;;4972283;28;20558;-75
2023/09/02 04:14:16;;;;;;;2.47;1.33;;;14.50;99.90;;;;;;4973257;28;20026;-75
2023/09/02 04:16:42;;;;;;;1.77;1.35;;;14.40;99.90;;;;;;4968357;28;20074;-75
2023/09/02 04:19:08;;;;;;;2.03;1.50;;;14.40;99.90;;;;;;4970972;28;20026;-75
2023/09/02 04:21:34;;;;;;;4.35;1.30;;;14.30;99.90;;;;;;4972564;28;20174;-75
2023/09/02 04:24:00;;;;;;;1.30;1.20;;;14.40;99.90;;;;;;4977604;28;20053;-75
2023/09/02 04:26:26;;;;;;;1.35;1.23;;;14.40;99.90;;;;;;4965749;28;20034;-75
2023/09/02 04:28:55;;;;;;;1.48;1.38;;;14.40;99.90;;;;;;4968541;28;20481;-75
2023/09/02 04:31:21;;;;;;;1.83;1.10;;;14.50;99.90;;;;;;4971364;28;20589;-76
2023/09/02 04:33:47;;;;;;;1.98;1.52;;;14.50;99.90;;;;;;4968630;28;20117;-75
2023/09/02 04:36:12;;;;;;;2.75;1.40;;;14.60;99.90;;;;;;4968259;28;20072;-75
2023/09/02 04:38:38;;;;;;;2.15;1.83;;;14.60;99.90;;;;;;4974005;28;20167;-75
2023/09/02 04:41:07;;;;;;;2.70;1.60;;;14.60;99.90;;;;;;4970917;28;20661;-74
2023/09/02 04:43:34;;;;;;;3.22;1.55;;;14.70;99.90;;;;;;4973707;28;20085;-75
2023/09/02 04:46:03;;;;;;;3.65;1.27;;;14.70;99.90;;;;;;4974800;28;20045;-75
2023/09/02 04:48:29;;;;;;;1.45;1.35;;;14.80;99.90;;;;;;4972724;28;20034;-75
2023/09/02 04:50:56;;;;;;;1.88;1.20;;;14.80;99.90;;;;;;4973912;28;20034;-76
2023/09/02 04:53:22;;;;;;;1.90;1.45;;;14.80;99.90;;;;;;4973660;28;20492;-76
2023/09/02 04:55:49;;;;;;;2.55;1.50;;;14.80;99.90;;;;;;4976541;28;20045;-76
2023/09/02 04:58:16;;;;;;;1.55;1.45;;;14.90;99.90;;;;;;4974403;28;20079;-75
2023/09/02 05:00:42;;;;;;;1.90;1.52;;;14.80;99.90;;;;;;4973793;28;20035;-75
2023/09/02 05:03:08;;;;;;;1.95;1.63;;;14.90;99.90;;;;;;4974150;28;20042;-76
2023/09/02 05:05:34;;;;;;;3.17;1.52;;;14.90;99.90;;;;;;4977509;28;20085;-75
2023/09/02 05:08:00;;;;;;;3.70;1.73;;;15.10;99.90;;;;;;4974978;28;20057;-75
2023/09/02 05:10:26;;;;;;;2.08;1.42;;;15.20;99.90;;;;;;4972224;28;20113;-75
2023/09/02 05:12:52;;;;;;;1.50;1.40;;;15.30;99.90;;;;;;4975804;28;20046;-75
2023/09/02 05:15:18;;;;;;;2.13;1.60;;;15.40;99.90;;;;;;4974423;28;20100;-75
2023/09/02 05:17:43;;;;;;;3.30;1.75;;;15.50;99.90;;;;;;4973157;28;20153;-75
2023/09/02 05:20:09;;;;;;;3.05;1.50;;;15.50;99.90;;;;;;4973899;28;20030;-75
2023/09/02 05:22:35;;;;;;;2.53;1.80;;;15.60;99.90;;;;;;4973430;28;20105;-75
2023/09/02 05:25:03;;;;;;;4.00;1.67;;;15.80;99.90;;;;;;4968745;28;20462;-75
2023/09/02 05:27:29;;;;;;;2.15;1.65;;;16.00;99.90;;;;;;4973621;28;24151;-75
2023/09/02 05:29:54;;;;;;;2.05;1.60;;;16.10;99.90;;;;;;4976479;28;20030;-74
2023/09/02 05:32:20;;;;;;;5.55;1.85;;;16.20;99.90;;;;;;4971653;28;20108;-75
2023/09/02 05:34:46;;;;;;;6.32;1.88;;;16.30;99.90;;;;;;4975193;28;20034;-75
2023/09/02 05:37:12;;;;;;;2.85;1.60;;;16.50;99.90;;;;;;4971944;28;20796;-75
2023/09/02 05:39:38;;;;;;;4.53;1.80;;;16.50;99.90;;;;;;4969788;28;20030;-75
2023/09/02 05:42:04;;;;;;;2.20;1.90;;;16.60;99.90;;;;;;4972352;28;20046;-74
2023/09/02 05:44:31;;;;;;;3.72;2.15;;;16.80;99.90;;;;;;4975994;28;20034;-74
2023/09/02 05:46:57;;;;;;;4.35;2.17;;;16.90;99.90;;;;;;4970423;28;20129;-75
2023/09/02 05:49:22;;;;;;;5.28;1.83;;;17.10;99.90;;;;;;4974736;28;20022;-75
2023/09/02 05:51:48;;;;;;;5.88;1.65;;;17.30;99.90;;;;;;4973503;28;20099;-75
2023/09/02 05:54:14;;;;;;;3.88;1.95;;;17.50;99.90;;;;;;4971497;28;20034;-75
2023/09/02 05:56:39;;;;;;;2.05;1.80;;;17.70;99.90;;;;;;4975247;28;20106;-75
2023/09/02 05:59:05;;;;;;;4.35;2.17;;;17.90;99.90;;;;;;4973163;28;20207;-70
2023/09/02 06:01:31;;;;;;;2.72;1.90;;;18.10;99.90;;;;;;4972597;28;20069;-77
2023/09/02 06:03:57;;;;;;;4.57;2.13;;;18.30;99.90;;;;;;4971835;28;20108;-75
2023/09/02 06:06:23;;;;;;;2.65;1.80;;;18.40;99.90;;;;;;4971257;28;20069;-75
2023/09/02 06:08:49;;;;;;;2.67;2.47;;;18.50;99.90;;;;;;4972197;28;20125;-74
2023/09/02 06:11:15;;;;;;;4.47;2.20;;;18.70;99.90;;;;;;4971198;28;20045;-75
2023/09/02 06:13:41;;;;;;;2.58;2.35;;;18.80;99.90;;;;;;4974238;28;20034;-74
2023/09/02 06:16:07;;;;;;;4.20;2.22;;;18.90;99.90;;;;;;4970347;28;20486;-75
2023/09/02 06:18:34;;;;;;;7.75;2.53;;;19.00;99.90;;;;;;4970568;28;20035;-70
2023/09/02 06:21:10;;;;;;;3.42;2.53;;;19.10;99.90;;;;;;4970951;28;20069;-71
2023/09/02 06:23:37;;;;;;;3.60;2.22;;;19.20;99.90;;;;;;4970811;28;20447;-71
2023/09/02 06:26:03;;;;;;;2.72;2.15;;;19.40;99.90;;;;;;4970055;28;20062;-73
2023/09/02 06:28:29;;;;;;;2.38;2.17;;;19.50;99.90;;;;;;4975324;28;20590;-62
2023/09/02 06:30:55;;;;;;;3.53;2.53;;;19.60;99.90;;;;;;4965177;28;20121;-63
2023/09/02 06:33:22;;;;;;;2.72;2.40;;;19.60;99.90;;;;;;4971466;28;20072;-63
2023/09/02 06:35:49;;;;;;;3.75;2.13;;;19.60;99.90;;;;;;4976889;28;20034;-63
2023/09/02 06:38:16;;;;;;;3.72;2.80;;;19.60;99.90;;;;;;4972040;28;20041;-63
2023/09/02 06:40:41;;;;;;;2.72;2.45;;;19.60;99.90;;;;;;4970446;28;20039;-63
2023/09/02 06:43:07;;;;;;;2.70;2.15;;;19.70;99.90;;;;;;4971108;28;20093;-63
2023/09/02 06:45:33;;;;;;;2.50;2.30;;;19.80;99.90;;;;;;4973547;28;20178;-63
2023/09/02 06:47:58;;;;;;;6.75;2.80;;;20.00;99.90;;;;;;4967871;28;20507;-63
2023/09/02 06:50:25;;;;;;;10.05;2.63;;;20.10;99.90;;;;;;4962788;28;20042;-69
2023/09/02 06:52:51;;;;;;;3.70;2.47;;;20.20;99.90;;;;;;4969785;28;20022;-69
2023/09/02 06:55:17;;;;;;;2.88;2.47;;;20.40;99.90;;;;;;4969733;28;20396;-70
2023/09/02 06:57:42;;;;;;;3.00;2.38;;;20.50;99.90;;;;;;4968493;28;20609;-70
2023/09/02 07:00:09;;;;;;;4.47;2.50;;;20.70;99.90;;;;;;4971683;28;20054;-70
2023/09/02 07:02:35;;;;;;;2.95;2.55;;;20.80;99.90;;;;;;4974550;28;20646;-69
2023/09/02 07:05:01;;;;;;;2.88;2.30;;;20.90;99.90;;;;;;4973812;28;20030;-70
2023/09/02 07:07:27;;;;;;;2.65;1.98;;;21.00;99.90;;;;;;4961174;28;20565;-69
2023/09/02 07:09:52;;;;;;;4.75;2.53;;;21.20;99.90;;;;;;4967359;28;20722;-69
2023/09/02 07:12:18;;;;;;;5.15;2.63;;;21.30;99.90;;;;;;4970971;28;20142;-69
2023/09/02 07:14:44;;;;;;;4.38;2.63;;;21.40;99.90;;;;;;4973523;28;20787;-69
2023/09/02 07:17:09;;;;;;;49.10;4.38;;;21.40;99.90;;;;;;4971913;28;20042;-69
2023/09/02 07:19:35;;;;;;;3.55;2.70;;;21.50;99.90;;;;;;4972462;28;20030;-70
2023/09/02 07:22:01;;;;;;;4.47;2.08;;;21.60;99.90;;;;;;4966854;28;20030;-65
2023/09/02 07:24:26;;;;;;;20.02;2.95;;;21.60;99.90;;;;;;4972658;28;20582;-64
2023/09/02 07:26:52;;;;;;;6.53;2.33;;;21.80;99.90;;;;;;4966090;28;20034;-64
2023/09/02 07:29:18;;;;;;;6.50;3.08;;;22.00;99.90;;;;;;4967896;28;20027;-64
2023/09/02 07:31:43;;;;;;;3.88;2.35;;;22.20;99.90;;;;;;4968147;28;20104;-64
2023/09/02 07:34:10;;;;;;;4.85;2.50;;;22.30;99.90;;;;;;4968187;28;20048;-64
2023/09/02 07:36:35;;;;;;;3.72;2.35;;;22.30;99.90;;;;;;4963736;28;20165;-64
2023/09/02 07:39:01;;;;;;;5.65;2.58;;;22.40;99.90;;;;;;4973181;28;20117;-64
2023/09/02 07:41:28;;;;;;;2.40;2.00;;;22.60;99.90;;;;;;4965774;28;20058;-64
2023/09/02 07:43:54;;;;;;;2.88;2.28;;;22.80;99.90;;;;;;4974886;28;20033;-63
2023/09/02 07:46:20;;;;;;;3.70;1.98;;;22.80;99.90;;;;;;4974547;28;20117;-63
2023/09/02 07:48:48;;;;;;;3.50;2.55;;;22.60;99.90;;;;;;4971846;28;20034;-63
2023/09/02 07:51:14;;;;;;;3.17;1.85;;;22.50;99.90;;;;;;4968092;28;20516;-63
2023/09/02 07:53:40;;;;;;;1.85;1.75;;;22.60;99.90;;;;;;4960368;28;20128;-64
2023/09/02 07:56:05;;;;;;;2.85;2.05;;;22.80;99.90;;;;;;4965839;28;20026;-64
2023/09/02 07:58:31;;;;;;;3.25;1.98;;;22.90;99.90;;;;;;4969810;28;20030;-63
2023/09/02 08:00:57;;;;;;;3.20;2.00;;;23.10;99.90;;;;;;4967919;28;20157;-64
2023/09/02 08:03:22;;;;;;;2.83;2.13;;;23.20;99.90;;;;;;4973093;28;20597;-64
2023/09/02 08:05:48;;;;;;;2.33;2.00;;;23.30;99.90;;;;;;4966462;28;20034;-63
2023/09/02 08:08:14;;;;;;;2.28;1.95;;;23.30;99.90;;;;;;4969018;28;20468;-63
2023/09/02 08:10:39;;;;;;;2.38;2.13;;;23.40;99.90;;;;;;4967422;28;20031;-73
2023/09/02 08:13:05;;;;;;;3.35;1.95;;;23.50;99.90;;;;;;4967352;28;20046;-73
2023/09/02 08:15:31;;;;;;;4.15;1.88;;;23.60;99.90;;;;;;4966287;28;20035;-73
2023/09/02 08:17:56;;;;;;;2.25;1.77;;;23.70;99.90;;;;;;4968412;28;20026;-73
2023/09/02 08:20:22;;;;;;;3.63;1.95;;;23.70;99.90;;;;;;4969311;28;20508;-73
2023/09/02 08:22:48;;;;;;;1.70;1.60;;;23.70;99.90;;;;;;4971101;28;20053;-73
2023/09/02 08:25:14;;;;;;;2.95;1.90;;;23.80;99.90;;;;;;4971216;28;20475;-73
2023/09/02 08:27:44;;;;;;;1.80;1.70;;;23.80;99.90;;;;;;4971642;28;20030;-74
2023/09/02 08:30:10;;;;;;;2.00;1.90;;;23.90;99.90;;;;;;4969809;28;20038;-73
2023/09/02 08:32:36;;;;;;;6.25;2.33;;;24.00;99.90;;;;;;4967988;28;20038;-73
2023/09/02 08:35:02;;;;;;;3.97;1.70;;;24.10;99.90;;;;;;4971505;28;20030;-74
2023/09/02 08:37:31;;;;;;;4.35;1.50;;;24.20;99.90;;;;;;4965588;28;20153;-73
2023/09/02 08:39:56;;;;;;;1.98;1.60;;;24.20;99.90;;;;;;4970900;28;20615;-74
2023/09/02 08:42:25;;;;;;;2.05;1.60;;;24.30;99.90;;;;;;4970406;28;20082;-72
2023/09/02 08:44:51;;;;;;;2.47;1.90;;;24.40;99.90;;;;;;4971843;28;20569;-73
2023/09/02 08:47:17;;;;;;;1.75;1.50;;;24.50;99.90;;;;;;4968609;28;20038;-72
2023/09/02 08:49:43;;;;;;;2.08;1.80;;;24.60;99.90;;;;;;4965027;28;20035;-74
2023/09/02 08:52:10;;;;;;;2.53;2.08;;;24.50;99.90;;;;;;4969897;28;20420;-73
2023/09/02 08:54:38;;;;;;;3.15;2.17;;;24.50;99.90;;;;;;4970144;28;20027;-73
2023/09/02 08:57:05;;;;;;;2.65;1.50;;;24.60;99.90;;;;;;4970434;28;20034;-72
2023/09/02 08:59:31;;;;;;;1.92;1.40;;;24.70;99.90;;;;;;4969512;28;20042;-73
2023/09/02 09:01:56;;;;;;;1.67;1.50;;;24.80;99.90;;;;;;4967705;28;20514;-73
2023/09/02 09:04:23;;;;;;;2.28;1.30;;;24.80;99.90;;;;;;4964738;28;20151;-71
2023/09/02 09:06:49;;;;;;;2.58;1.60;;;24.80;99.90;;;;;;4973891;28;20039;-72
2023/09/02 09:09:17;;;;;;;1.40;1.27;;;24.90;99.90;;;;;;4966233;28;20502;-71
2023/09/02 09:11:44;;;;;;;4.57;1.52;;;24.90;99.90;;;;;;4955517;28;20121;-70
2023/09/02 09:14:22;;;;;;;2.67;1.60;;;25.00;99.90;;;;;;4971185;28;20031;-70
2023/09/02 09:16:52;;;;;;;1.92;1.48;;;25.00;99.90;;;;;;4970393;28;20030;-71
2023/09/02 09:19:20;;;;;;;1.35;0.98;;;25.00;99.90;;;;;;4965095;28;20026;-71
2023/09/02 09:21:46;;;;;;;1.38;1.25;;;25.10;99.90;;;;;;4970895;28;20042;-71
2023/09/02 09:24:14;;;;;;;5.18;1.10;;;25.20;99.90;;;;;;4967365;28;20101;-70
2023/09/02 09:26:44;;;;;;;3.55;1.20;;;25.30;99.90;;;;;;4967183;28;20110;-70
2023/09/02 09:29:15;;;;;;;3.50;1.33;;;25.40;99.90;;;;;;4965151;28;20511;-71
2023/09/02 09:31:42;;;;;;;1.67;1.40;;;25.60;99.90;;;;;;4972358;28;20133;-71
2023/09/02 09:34:08;;;;;;;1.95;0.90;;;25.60;99.90;;;;;;4974815;28;20034;-71
2023/09/02 09:36:34;;;;;;;1.40;1.30;;;25.50;99.90;;;;;;4973635;28;20055;-70
2023/09/02 09:39:01;;;;;;;1.33;1.20;;;25.60;99.90;;;;;;4969306;28;20043;-70
2023/09/02 09:41:28;;;;;;;2.05;1.25;;;25.70;99.90;;;;;;4970384;28;20039;-64
2023/09/02 09:44:06;;;;;;;2.28;1.30;;;25.60;99.90;;;;;;4969486;28;20042;-64
2023/09/02 09:46:42;;;;;;;2.03;1.48;;;25.40;99.90;;;;;;4974199;28;20554;-64
2023/09/02 09:49:07;;;;;;;2.53;1.05;;;25.40;99.90;;;;;;4971953;28;20038;-65
2023/09/02 09:51:33;;;;;;;3.17;1.20;;;25.40;99.90;;;;;;4977825;28;20030;-64
2023/09/02 09:53:59;;;;;;;1.48;0.85;;;25.40;99.90;;;;;;4970055;28;20125;-64
2023/09/02 09:56:25;;;;;;;1.67;1.08;;;25.50;99.90;;;;;;4970846;28;20433;-64
2023/09/02 09:58:50;;;;;;;2.13;1.20;;;25.50;99.90;;;;;;4971877;28;20022;-64
2023/09/02 10:01:21;;;;;;;3.63;1.25;;;25.60;99.90;;;;;;4970749;28;20046;-64
2023/09/02 10:03:47;;;;;;;1.42;1.17;;;25.50;99.90;;;;;;4976083;28;20042;-64
2023/09/02 10:06:12;;;;;;;2.08;1.20;;;25.40;99.90;;;;;;4977684;28;20101;-64
2023/09/02 10:08:52;;;;;;;1.75;1.20;;;25.10;99.90;;;;;;4971975;28;20118;-64
2023/09/02 10:11:21;;;;;;;1.60;1.10;;;25.00;99.90;;;;;;4972032;28;20149;-66
2023/09/02 10:13:52;;;;;;;4.07;1.95;;;25.00;99.90;;;;;;4971603;28;20590;-66
2023/09/02 10:16:19;;;;;;;1.35;0.93;;;25.10;99.90;;;;;;4962415;28;20026;-69
2023/09/02 10:18:47;;;;;;;1.10;1.00;;;25.00;99.90;;;;;;4974151;28;20451;-65
2023/09/02 10:21:15;;;;;;;1.80;1.00;;;25.10;99.90;;;;;;4976051;28;20128;-64
2023/09/02 10:23:54;;;;;;;3.60;1.15;;;25.20;99.90;;;;;;4972340;28;20085;-65
2023/09/02 10:26:56;;;;;;;1.95;1.40;;;25.20;99.90;;;;;;4964674;28;20514;-65
2023/09/02 10:29:32;;;;;;;2.03;1.15;;;25.20;99.90;;;;;;4936104;28;20058;-65
2023/09/02 10:32:03;;;;;;;1.85;1.17;;;25.20;99.90;;;;;;4964968;28;20053;-65
2023/09/02 10:34:44;;;;;;;3.38;0.90;;;25.30;99.90;;;;;;4973194;28;20042;-71
2023/09/02 10:37:14;;;;;;;4.15;0.73;;;25.40;99.90;;;;;;4969842;28;20758;-71
2023/09/02 10:39:58;;;;;;;2.35;0.93;;;25.50;99.90;;;;;;4966983;28;20038;-70
2023/09/02 10:42:26;;;;;;;5.80;0.93;;;25.50;99.90;;;;;;4962268;28;20050;-70
2023/09/02 10:44:53;;;;;;;2.05;0.98;;;25.60;99.90;;;;;;4960053;28;20496;-70
2023/09/02 10:47:19;;;;;;;1.42;0.90;;;25.70;99.90;;;;;;4966660;28;20039;-70
2023/09/02 10:49:45;;;;;;;1.15;1.05;;;25.60;99.90;;;;;;4962376;28;20031;-70
2023/09/02 10:52:13;;;;;;;0.73;0.60;;;25.60;99.90;;;;;;4969973;28;20062;-69
2023/09/02 10:55:04;;;;;;;2.85;0.80;;;25.60;99.90;;;;;;4969440;28;20034;-63
2023/09/02 10:57:31;;;;;;;1.80;1.00;;;25.60;99.90;;;;;;4968543;28;20143;-64
2023/09/02 11:00:19;;;;;;;1.30;0.85;;;25.60;99.90;;;;;;4966574;28;20130;-64
2023/09/02 11:02:51;;;;;;;1.15;0.80;;;25.60;99.90;;;;;;4971353;28;20061;-64
2023/09/02 11:05:17;;;;;;;6.10;0.90;;;25.60;99.90;;;;;;4969448;28;20034;-64
2023/09/02 11:07:42;;;;;;;2.20;0.90;;;25.70;99.90;;;;;;4971876;28;20030;-64
2023/09/02 11:10:10;;;;;;;3.70;1.00;;;25.60;99.90;;;;;;4971091;28;20023;-64
2023/09/02 11:13:01;;;;;;;1.33;1.10;;;25.60;99.90;;;;;;4971861;28;20097;-69
2023/09/02 11:15:31;;;;;;;2.70;0.85;;;25.50;99.90;;;;;;4968140;28;20049;-69
2023/09/02 11:17:56;;;;;;;2.80;1.20;;;25.50;99.90;;;;;;4964454;28;20035;-69
2023/09/02 11:20:25;;;;;;;3.00;1.20;;;25.50;99.90;;;;;;4969945;28;20077;-69
2023/09/02 11:22:51;;;;;;;3.55;0.93;;;25.70;99.90;;;;;;4960924;28;20022;-69
2023/09/02 11:25:28;;;;;;;1.98;1.27;;;25.90;99.90;;;;;;4966031;28;20125;-69
2023/09/02 11:27:55;;;;;;;1.63;1.10;;;26.10;99.90;;;;;;4968885;28;20170;-70
2023/09/02 11:30:25;;;;;;;1.85;1.10;;;26.40;99.90;;;;;;4969107;28;20909;-69
2023/09/02 11:32:52;;;;;;;2.25;1.10;;;26.50;99.90;;;;;;4972842;28;20030;-69
2023/09/02 11:35:37;;;;;;;1.10;1.00;;;26.50;99.90;;;;;;4969098;28;20053;-69
2023/09/02 11:38:15;;;;;;;1.27;0.95;;;26.50;99.90;;;;;;4968827;28;20082;-70
2023/09/02 11:40:41;;;;;;;1.13;0.98;;;26.40;99.90;;;;;;4971517;28;20550;-69
2023/09/02 11:43:07;;;;;;;2.10;0.95;;;26.40;99.90;;;;;;4969341;28;20034;-70
2023/09/02 11:45:35;;;;;;;1.40;1.00;;;26.50;99.90;;;;;;4970286;28;20034;-69
2023/09/02 11:48:03;;;;;;;1.40;1.10;;;26.60;99.90;;;;;;4963318;28;20035;-69
2023/09/02 11:50:28;;;;;;;2.30;1.13;;;26.70;99.90;;;;;;4968504;28;20065;-70
2023/09/02 11:52:56;;;;;;;1.20;1.10;;;26.90;99.90;;;;;;4949494;28;20122;-71
2023/09/02 11:55:22;;;;;;;1.05;0.93;;;27.10;99.90;;;;;;4968071;28;20034;-71
2023/09/02 11:57:49;;;;;;;1.10;1.00;;;27.30;99.90;;;;;;4971630;28;20361;-70
2023/09/02 12:00:23;;;;;;;1.33;1.00;;;27.20;99.90;;;;;;4964282;28;20190;-70
2023/09/02 12:02:50;;;;;;;2.05;1.10;;;27.30;99.90;;;;;;4961618;28;20057;-70
2023/09/02 12:05:16;;;;;;;1.38;0.90;;;27.30;99.90;;;;;;4961152;28;20042;-69
2023/09/02 12:07:46;;;;;;;3.97;1.60;;;27.50;99.90;;;;;;4963196;28;20039;-68
2023/09/02 12:10:16;;;;;;;2.45;1.00;;;27.50;99.90;;;;;;4962417;28;20042;-69
2023/09/02 12:12:47;;;;;;;1.13;1.00;;;27.40;99.90;;;;;;4949640;28;20030;-68
2023/09/02 12:15:18;;;;;;;1.77;0.90;;;27.30;99.90;;;;;;4958873;28;20118;-69
2023/09/02 12:17:45;;;;;;;1.02;0.88;;;27.40;99.90;;;;;;4961955;28;20054;-69
2023/09/02 12:20:13;;;;;;;1.17;1.08;;;27.30;99.90;;;;;;4959513;28;20353;-69
2023/09/02 12:22:41;;;;;;;0.98;0.90;;;27.30;99.90;;;;;;4959765;28;20038;-69
2023/09/02 12:25:21;;;;;;;1.77;0.90;;;27.20;99.90;;;;;;4957703;28;20095;-65
2023/09/02 12:27:51;;;;;;;0.88;0.80;;;27.10;99.90;;;;;;4958274;28;20027;-65
2023/09/02 12:30:33;;;;;;;4.93;1.02;;;27.30;99.90;;;;;;4954975;28;20027;-65
2023/09/02 12:32:58;;;;;;;0.70;0.70;;;27.30;99.90;;;;;;4969350;28;20038;-65
2023/09/02 12:35:25;;;;;;;1.30;1.10;;;27.30;99.90;;;;;;4968390;28;20038;-65
2023/09/02 12:38:09;;;;;;;1.30;0.75;;;27.20;99.90;;;;;;4962573;28;20412;-64
2023/09/02 12:40:35;;;;;;;1.48;1.00;;;27.30;99.90;;;;;;4966564;28;20037;-65
2023/09/02 12:43:02;;;;;;;1.13;0.63;;;27.30;99.90;;;;;;4962186;28;20049;-65
2023/09/02 12:45:32;;;;;;;2.92;0.85;;;27.40;99.90;;;;;;4970667;28;20034;-65
2023/09/02 12:48:01;;;;;;;1.80;0.80;;;27.50;99.90;;;;;;4966706;28;20054;-65